sensor_id;sensor_type;location;lat;lon;timestamp;pressure;altitude;pressure_sealevel;temperature;humidity
42633;BME280;28261;53.304;-6.284;2023-04-23T00:00:08;99685.81;;;7.43;100.00
42633;BME280;28261;53.304;-6.284;2023-04-23T00:02:15;99688.56;;;7.42;100.00
42633;BME280;28261;53.304;-6.284;2023-04-23T00:04:21;99690.38;;;7.41;100.00
42633;BME280;28261;53.304;-6.284;2023-04-23T00:06:25;99687.84;;;7.40;100.00
42633;BME280;28261;53.304;-6.284;2023-04-23T00:08:31;99688.56;;;7.42;100.00
42633;BME280;28261;53.304;-6.284;2023-04-23T00:10:35;99686.78;;;7.42;100.00
42633;BME280;28261;53.304;-6.284;2023-04-23T00:12:40;99684.28;;;7.41;100.00
42633;BME280;28261;53.304;-6.284;2023-04-23T00:14:44;99683.28;;;7.42;100.00
42633;BME280;28261;53.304;-6.284;2023-04-23T00:16:48;99685.09;;;7.41;100.00
42633;BME280;28261;53.304;-6.284;2023-04-23T00:18:53;99680.88;;;7.39;100.00
42633;BME280;28261;53.304;-6.284;2023-04-23T00:20:56;99687.09;;;7.38;100.00
42633;BME280;28261;53.304;-6.284;2023-04-23T00:23:00;99682.88;;;7.35;100.00
42633;BME280;28261;53.304;-6.284;2023-04-23T00:25:03;99685.63;;;7.34;100.00
42633;BME280;28261;53.304;-6.284;2023-04-23T00:27:07;99690.06;;;7.33;100.00
42633;BME280;28261;53.304;-6.284;2023-04-23T00:29:10;99683.97;;;7.33;100.00
42633;BME280;28261;53.304;-6.284;2023-04-23T00:31:13;99697.22;;;7.31;100.00
42633;BME280;28261;53.304;-6.284;2023-04-23T00:33:17;99690.41;;;7.28;100.00
42633;BME280;28261;53.304;-6.284;2023-04-23T00:35:22;99693.22;;;7.25;100.00
42633;BME280;28261;53.304;-6.284;2023-04-23T00:37:25;99688.19;;;7.22;100.00
42633;BME280;28261;53.304;-6.284;2023-04-23T00:39:28;99698.84;;;7.21;100.00
42633;BME280;28261;53.304;-6.284;2023-04-23T00:41:32;99693.69;;;7.19;100.00
42633;BME280;28261;53.304;-6.284;2023-04-23T00:43:36;99693.88;;;7.16;100.00
42633;BME280;28261;53.304;-6.284;2023-04-23T00:45:39;99691.34;;;7.15;100.00
42633;BME280;28261;53.304;-6.284;2023-04-23T00:47:43;99688.81;;;7.13;100.00
42633;BME280;28261;53.304;-6.284;2023-04-23T00:49:47;99699.34;;;7.13;100.00
42633;BME280;28261;53.304;-6.284;2023-04-23T00:51:53;99700.22;;;7.14;100.00
42633;BME280;28261;53.304;-6.284;2023-04-23T00:53:56;99692.38;;;7.12;100.00
42633;BME280;28261;53.304;-6.284;2023-04-23T00:56:01;99693.25;;;7.13;100.00
42633;BME280;28261;53.304;-6.284;2023-04-23T00:58:06;99690.50;;;7.14;100.00
42633;BME280;28261;53.304;-6.284;2023-04-23T01:00:11;99689.69;;;7.14;100.00
42633;BME280;28261;53.304;-6.284;2023-04-23T01:02:15;99685.25;;;7.14;100.00
42633;BME280;28261;53.304;-6.284;2023-04-23T01:04:20;99685.13;;;7.16;100.00
42633;BME280;28261;53.304;-6.284;2023-04-23T01:06:26;99685.13;;;7.16;100.00
42633;BME280;28261;53.304;-6.284;2023-04-23T01:08:34;99682.38;;;7.17;100.00
42633;BME280;28261;53.304;-6.284;2023-04-23T01:10:37;99685.88;;;7.18;100.00
42633;BME280;28261;53.304;-6.284;2023-04-23T01:12:40;99684.19;;;7.17;100.00
42633;BME280;28261;53.304;-6.284;2023-04-23T01:14:44;99688.72;;;7.15;100.00
42633;BME280;28261;53.304;-6.284;2023-04-23T01:16:48;99687.03;;;7.14;100.00
42633;BME280;28261;53.304;-6.284;2023-04-23T01:18:53;99683.66;;;7.11;100.00
42633;BME280;28261;53.304;-6.284;2023-04-23T01:20:58;99688.22;;;7.09;100.00
42633;BME280;28261;53.304;-6.284;2023-04-23T01:23:03;99690.09;;;7.07;100.00
42633;BME280;28261;53.304;-6.284;2023-04-23T01:25:07;99680.50;;;7.06;100.00
42633;BME280;28261;53.304;-6.284;2023-04-23T01:27:11;99681.66;;;7.02;100.00
42633;BME280;28261;53.304;-6.284;2023-04-23T01:29:14;99681.66;;;7.02;100.00
42633;BME280;28261;53.304;-6.284;2023-04-23T01:31:18;99679.00;;;7.02;100.00
42633;BME280;28261;53.304;-6.284;2023-04-23T01:33:22;99682.69;;;7.00;100.00
42633;BME280;28261;53.304;-6.284;2023-04-23T01:35:26;99683.84;;;6.95;100.00
42633;BME280;28261;53.304;-6.284;2023-04-23T01:37:31;99678.69;;;6.94;100.00
42633;BME280;28261;53.304;-6.284;2023-04-23T01:39:36;99684.19;;;6.91;100.00
42633;BME280;28261;53.304;-6.284;2023-04-23T01:41:40;99681.88;;;6.86;100.00
42633;BME280;28261;53.304;-6.284;2023-04-23T01:43:44;99680.41;;;6.82;100.00
42633;BME280;28261;53.304;-6.284;2023-04-23T01:45:48;99677.00;;;6.80;100.00
42633;BME280;28261;53.304;-6.284;2023-04-23T01:47:52;99679.00;;;6.76;100.00
42633;BME280;28261;53.304;-6.284;2023-04-23T01:49:55;99681.84;;;6.73;100.00
42633;BME280;28261;53.304;-6.284;2023-04-23T01:51:59;99678.50;;;6.71;100.00
42633;BME280;28261;53.304;-6.284;2023-04-23T01:54:02;99677.13;;;6.66;100.00
42633;BME280;28261;53.304;-6.284;2023-04-23T01:56:07;99677.53;;;6.59;100.00
42633;BME280;28261;53.304;-6.284;2023-04-23T01:58:11;99673.63;;;6.52;100.00
42633;BME280;28261;53.304;-6.284;2023-04-23T02:00:15;99674.97;;;6.45;100.00
42633;BME280;28261;53.304;-6.284;2023-04-23T02:02:19;99673.59;;;6.39;100.00
42633;BME280;28261;53.304;-6.284;2023-04-23T02:04:22;99673.16;;;6.33;100.00
42633;BME280;28261;53.304;-6.284;2023-04-23T02:06:26;99674.28;;;6.29;100.00
42633;BME280;28261;53.304;-6.284;2023-04-23T02:08:30;99672.81;;;6.24;100.00
42633;BME280;28261;53.304;-6.284;2023-04-23T02:10:33;99662.59;;;6.20;100.00
42633;BME280;28261;53.304;-6.284;2023-04-23T02:12:38;99668.19;;;6.15;100.00
42633;BME280;28261;53.304;-6.284;2023-04-23T02:14:43;99666.75;;;6.09;100.00
42633;BME280;28261;53.304;-6.284;2023-04-23T02:16:46;99668.78;;;6.06;100.00
42633;BME280;28261;53.304;-6.284;2023-04-23T02:18:51;99664.75;;;6.00;100.00
42633;BME280;28261;53.304;-6.284;2023-04-23T02:20:54;99669.44;;;5.95;100.00
42633;BME280;28261;53.304;-6.284;2023-04-23T02:22:59;99673.22;;;5.91;100.00
42633;BME280;28261;53.304;-6.284;2023-04-23T02:25:04;99671.72;;;5.87;100.00
42633;BME280;28261;53.304;-6.284;2023-04-23T02:27:08;99668.53;;;5.82;100.00
42633;BME280;28261;53.304;-6.284;2023-04-23T02:29:12;99681.13;;;5.76;100.00
42633;BME280;28261;53.304;-6.284;2023-04-23T02:31:16;99663.84;;;5.72;100.00
42633;BME280;28261;53.304;-6.284;2023-04-23T02:33:21;99678.16;;;5.68;100.00
42633;BME280;28261;53.304;-6.284;2023-04-23T02:35:25;99676.66;;;5.64;100.00
42633;BME280;28261;53.304;-6.284;2023-04-23T02:37:28;99678.56;;;5.62;100.00
42633;BME280;28261;53.304;-6.284;2023-04-23T02:39:32;99676.84;;;5.61;100.00
42633;BME280;28261;53.304;-6.284;2023-04-23T02:41:35;99676.84;;;5.61;100.00
42633;BME280;28261;53.304;-6.284;2023-04-23T02:43:38;99677.78;;;5.60;100.00
42633;BME280;28261;53.304;-6.284;2023-04-23T02:45:43;99677.16;;;5.56;100.00
42633;BME280;28261;53.304;-6.284;2023-04-23T02:47:46;99681.00;;;5.51;100.00
42633;BME280;28261;53.304;-6.284;2023-04-23T02:49:50;99682.88;;;5.49;100.00
42633;BME280;28261;53.304;-6.284;2023-04-23T02:51:54;99681.19;;;5.48;100.00
42633;BME280;28261;53.304;-6.284;2023-04-23T02:53:58;99676.69;;;5.50;100.00
42633;BME280;28261;53.304;-6.284;2023-04-23T02:56:01;99670.56;;;5.49;100.00
42633;BME280;28261;53.304;-6.284;2023-04-23T02:58:05;99675.72;;;5.51;100.00
42633;BME280;28261;53.304;-6.284;2023-04-23T03:00:11;99666.91;;;5.52;100.00
42633;BME280;28261;53.304;-6.284;2023-04-23T03:02:18;99667.78;;;5.52;100.00
42633;BME280;28261;53.304;-6.284;2023-04-23T03:04:22;99672.16;;;5.52;100.00
42633;BME280;28261;53.304;-6.284;2023-04-23T03:06:26;99672.16;;;5.52;100.00
42633;BME280;28261;53.304;-6.284;2023-04-23T03:08:29;99676.41;;;5.54;100.00
42633;BME280;28261;53.304;-6.284;2023-04-23T03:10:33;99673.66;;;5.56;100.00
42633;BME280;28261;53.304;-6.284;2023-04-23T03:12:36;99667.47;;;5.57;100.00
42633;BME280;28261;53.304;-6.284;2023-04-23T03:14:40;99667.38;;;5.58;100.00
42633;BME280;28261;53.304;-6.284;2023-04-23T03:16:44;99669.91;;;5.60;100.00
42633;BME280;28261;53.304;-6.284;2023-04-23T03:18:49;99675.81;;;5.64;100.00
42633;BME280;28261;53.304;-6.284;2023-04-23T03:20:52;99674.03;;;5.64;100.00
42633;BME280;28261;53.304;-6.284;2023-04-23T03:22:56;99681.75;;;5.67;100.00
42633;BME280;28261;53.304;-6.284;2023-04-23T03:24:59;99686.78;;;5.70;100.00
42633;BME280;28261;53.304;-6.284;2023-04-23T03:27:03;99676.91;;;5.74;100.00
42633;BME280;28261;53.304;-6.284;2023-04-23T03:29:06;99692.50;;;5.77;100.00
42633;BME280;28261;53.304;-6.284;2023-04-23T03:31:11;99689.69;;;5.80;100.00
42633;BME280;28261;53.304;-6.284;2023-04-23T03:33:15;99681.59;;;5.83;100.00
42633;BME280;28261;53.304;-6.284;2023-04-23T03:35:20;99693.69;;;5.86;100.00
42633;BME280;28261;53.304;-6.284;2023-04-23T03:37:25;99691.63;;;5.91;100.00
42633;BME280;28261;53.304;-6.284;2023-04-23T03:39:28;99686.16;;;5.94;100.00
42633;BME280;28261;53.304;-6.284;2023-04-23T03:41:32;99689.47;;;5.98;100.00
42633;BME280;28261;53.304;-6.284;2023-04-23T03:43:36;99687.56;;;6.00;100.00
42633;BME280;28261;53.304;-6.284;2023-04-23T03:46:09;99686.31;;;6.05;100.00
42633;BME280;28261;53.304;-6.284;2023-04-23T03:48:15;99688.03;;;6.06;100.00
42633;BME280;28261;53.304;-6.284;2023-04-23T03:50:20;99692.25;;;6.09;100.00
42633;BME280;28261;53.304;-6.284;2023-04-23T03:52:36;99690.28;;;6.13;100.00
42633;BME280;28261;53.304;-6.284;2023-04-23T03:54:43;99689.31;;;6.14;100.00
42633;BME280;28261;53.304;-6.284;2023-04-23T03:56:50;99693.63;;;6.15;100.00
42633;BME280;28261;53.304;-6.284;2023-04-23T03:59:00;99689.13;;;6.17;100.00
42633;BME280;28261;53.304;-6.284;2023-04-23T04:01:04;99694.28;;;6.18;100.00
42633;BME280;28261;53.304;-6.284;2023-04-23T04:03:08;99700.28;;;6.20;100.00
42633;BME280;28261;53.304;-6.284;2023-04-23T04:05:12;99698.41;;;6.22;100.00
42633;BME280;28261;53.304;-6.284;2023-04-23T04:07:17;99698.28;;;6.24;100.00
42633;BME280;28261;53.304;-6.284;2023-04-23T04:09:20;99702.63;;;6.25;100.00
42633;BME280;28261;53.304;-6.284;2023-04-23T04:11:24;99699.03;;;6.26;100.00
42633;BME280;28261;53.304;-6.284;2023-04-23T04:13:27;99693.88;;;6.24;100.00
42633;BME280;28261;53.304;-6.284;2023-04-23T04:15:31;99697.38;;;6.25;100.00
42633;BME280;28261;53.304;-6.284;2023-04-23T04:17:35;99700.81;;;6.25;100.00
42633;BME280;28261;53.304;-6.284;2023-04-23T04:19:38;99705.16;;;6.26;100.00
42633;BME280;28261;53.304;-6.284;2023-04-23T04:21:42;99703.34;;;6.27;100.00
42633;BME280;28261;53.304;-6.284;2023-04-23T04:23:47;99700.72;;;6.27;100.00
42633;BME280;28261;53.304;-6.284;2023-04-23T04:25:51;99701.47;;;6.29;100.00
42633;BME280;28261;53.304;-6.284;2023-04-23T04:27:57;99696.09;;;6.31;100.00
42633;BME280;28261;53.304;-6.284;2023-04-23T04:30:01;99697.91;;;6.30;100.00
42633;BME280;28261;53.304;-6.284;2023-04-23T04:32:06;99695.47;;;6.27;100.00
42633;BME280;28261;53.304;-6.284;2023-04-23T04:34:10;99700.72;;;6.27;100.00
42633;BME280;28261;53.304;-6.284;2023-04-23T04:36:15;99695.47;;;6.27;100.00
42633;BME280;28261;53.304;-6.284;2023-04-23T04:38:19;99695.47;;;6.27;100.00
42633;BME280;28261;53.304;-6.284;2023-04-23T04:40:25;99694.53;;;6.28;100.00
42633;BME280;28261;53.304;-6.284;2023-04-23T04:42:29;99695.28;;;6.30;100.00
42633;BME280;28261;53.304;-6.284;2023-04-23T04:44:33;99697.69;;;6.33;100.00
42633;BME280;28261;53.304;-6.284;2023-04-23T04:46:39;99691.50;;;6.34;100.00
42633;BME280;28261;53.304;-6.284;2023-04-23T04:48:44;99696.66;;;6.36;100.00
42633;BME280;28261;53.304;-6.284;2023-04-23T04:50:47;99687.91;;;6.35;100.00
42633;BME280;28261;53.304;-6.284;2023-04-23T04:52:51;99694.84;;;6.36;100.00
42633;BME280;28261;53.304;-6.284;2023-04-23T04:54:55;99688.66;;;6.37;100.00
42633;BME280;28261;53.304;-6.284;2023-04-23T04:57:00;99693.91;;;6.37;100.00
42633;BME280;28261;53.304;-6.284;2023-04-23T04:59:04;99690.34;;;6.38;100.00
42633;BME280;28261;53.304;-6.284;2023-04-23T05:01:08;99689.50;;;6.38;100.00
42633;BME280;28261;53.304;-6.284;2023-04-23T05:03:12;99694.84;;;6.36;100.00
42633;BME280;28261;53.304;-6.284;2023-04-23T05:05:16;99695.91;;;6.34;100.00
42633;BME280;28261;53.304;-6.284;2023-04-23T05:07:20;99699.56;;;6.31;100.00
42633;BME280;28261;53.304;-6.284;2023-04-23T05:09:24;99703.25;;;6.29;100.00
42633;BME280;28261;53.304;-6.284;2023-04-23T05:11:27;99705.97;;;6.27;100.00
42633;BME280;28261;53.304;-6.284;2023-04-23T05:13:33;99711.25;;;6.27;100.00
42633;BME280;28261;53.304;-6.284;2023-04-23T05:15:36;99702.53;;;6.26;100.00
42633;BME280;28261;53.304;-6.284;2023-04-23T05:17:40;99705.97;;;6.27;100.00
42633;BME280;28261;53.304;-6.284;2023-04-23T05:19:44;99700.72;;;6.27;100.00
42633;BME280;28261;53.304;-6.284;2023-04-23T05:21:48;99702.41;;;6.28;100.00
42633;BME280;28261;53.304;-6.284;2023-04-23T05:23:51;99708.50;;;6.29;100.00
42633;BME280;28261;53.304;-6.284;2023-04-23T05:25:55;99712.72;;;6.31;100.00
42633;BME280;28261;53.304;-6.284;2023-04-23T05:28:00;99716.13;;;6.33;100.00
42633;BME280;28261;53.304;-6.284;2023-04-23T05:30:07;99723.09;;;6.34;100.00
42633;BME280;28261;53.304;-6.284;2023-04-23T05:32:11;99718.66;;;6.35;100.00
42633;BME280;28261;53.304;-6.284;2023-04-23T05:34:15;99719.47;;;6.35;100.00
42633;BME280;28261;53.304;-6.284;2023-04-23T05:36:18;99724.56;;;6.38;100.00
42633;BME280;28261;53.304;-6.284;2023-04-23T05:38:22;99721.72;;;6.41;100.00
42633;BME280;28261;53.304;-6.284;2023-04-23T05:40:26;99729.31;;;6.46;100.00
42633;BME280;28261;53.304;-6.284;2023-04-23T05:42:29;99727.34;;;6.50;100.00
42633;BME280;28261;53.304;-6.284;2023-04-23T05:44:33;99735.97;;;6.52;100.00
42633;BME280;28261;53.304;-6.284;2023-04-23T05:46:38;99731.44;;;6.54;100.00
42633;BME280;28261;53.304;-6.284;2023-04-23T05:48:42;99734.91;;;6.54;100.00
42633;BME280;28261;53.304;-6.284;2023-04-23T05:50:45;99728.50;;;6.58;100.00
42633;BME280;28261;53.304;-6.284;2023-04-23T05:52:50;99731.88;;;6.60;100.00
42633;BME280;28261;53.304;-6.284;2023-04-23T05:54:54;99727.44;;;6.61;100.00
42633;BME280;28261;53.304;-6.284;2023-04-23T05:56:58;99729.88;;;6.64;100.00
42633;BME280;28261;53.304;-6.284;2023-04-23T05:59:02;99726.09;;;6.68;100.00
42633;BME280;28261;53.304;-6.284;2023-04-23T06:01:07;99725.03;;;6.71;100.00
42633;BME280;28261;53.304;-6.284;2023-04-23T06:03:12;99723.16;;;6.73;100.00
42633;BME280;28261;53.304;-6.284;2023-04-23T06:05:16;99734.31;;;6.76;100.00
42633;BME280;28261;53.304;-6.284;2023-04-23T06:07:20;99730.53;;;6.81;100.00
42633;BME280;28261;53.304;-6.284;2023-04-23T06:09:24;99731.19;;;6.84;100.00
42633;BME280;28261;53.304;-6.284;2023-04-23T06:11:28;99729.31;;;6.86;100.00
42633;BME280;28261;53.304;-6.284;2023-04-23T06:13:33;99730.25;;;6.85;100.00
42633;BME280;28261;53.304;-6.284;2023-04-23T06:15:44;99733.41;;;6.90;100.00
42633;BME280;28261;53.304;-6.284;2023-04-23T06:17:48;99740.16;;;6.94;100.00
42633;BME280;28261;53.304;-6.284;2023-04-23T06:19:53;99736.47;;;6.97;100.00
42633;BME280;28261;53.304;-6.284;2023-04-23T06:21:57;99732.69;;;7.01;100.00
42633;BME280;28261;53.304;-6.284;2023-04-23T06:24:01;99735.63;;;7.09;100.00
42633;BME280;28261;53.304;-6.284;2023-04-23T06:26:04;99737.50;;;7.20;100.00
42633;BME280;28261;53.304;-6.284;2023-04-23T06:28:08;99727.56;;;7.62;100.00
42633;BME280;28261;53.304;-6.284;2023-04-23T06:30:27;99741.91;;;8.08;100.00
42633;BME280;28261;53.304;-6.284;2023-04-23T06:32:31;99734.66;;;8.23;100.00
42633;BME280;28261;53.304;-6.284;2023-04-23T06:34:35;99732.66;;;8.27;100.00
42633;BME280;28261;53.304;-6.284;2023-04-23T06:36:53;99740.00;;;8.35;100.00
42633;BME280;28261;53.304;-6.284;2023-04-23T06:38:57;99743.78;;;8.43;100.00
42633;BME280;28261;53.304;-6.284;2023-04-23T06:41:00;99748.47;;;8.75;100.00
42633;BME280;28261;53.304;-6.284;2023-04-23T06:43:05;99750.88;;;9.25;100.00
42633;BME280;28261;53.304;-6.284;2023-04-23T06:45:25;99757.25;;;9.79;99.12
42633;BME280;28261;53.304;-6.284;2023-04-23T06:47:29;99759.63;;;10.05;97.04
42633;BME280;28261;53.304;-6.284;2023-04-23T06:49:33;99761.78;;;10.00;95.83
42633;BME280;28261;53.304;-6.284;2023-04-23T06:51:36;99768.31;;;9.85;97.32
42633;BME280;28261;53.304;-6.284;2023-04-23T06:53:42;99770.00;;;9.63;97.85
42633;BME280;28261;53.304;-6.284;2023-04-23T06:55:45;99774.31;;;9.30;97.49
42633;BME280;28261;53.304;-6.284;2023-04-23T06:57:50;99768.13;;;9.07;99.54
42633;BME280;28261;53.304;-6.284;2023-04-23T06:59:54;99775.88;;;8.86;100.00
42633;BME280;28261;53.304;-6.284;2023-04-23T07:02:03;99771.75;;;8.70;100.00
42633;BME280;28261;53.304;-6.284;2023-04-23T07:04:06;99771.25;;;8.65;100.00
42633;BME280;28261;53.304;-6.284;2023-04-23T07:06:10;99769.88;;;8.84;100.00
42633;BME280;28261;53.304;-6.284;2023-04-23T07:08:14;99769.63;;;9.45;100.00
42633;BME280;28261;53.304;-6.284;2023-04-23T07:10:23;99768.59;;;10.25;98.88
42633;BME280;28261;53.304;-6.284;2023-04-23T07:12:27;99775.16;;;11.07;94.69
42633;BME280;28261;53.304;-6.284;2023-04-23T07:14:31;99771.31;;;11.73;91.48
42633;BME280;28261;53.304;-6.284;2023-04-23T07:16:34;99776.06;;;12.10;87.16
42633;BME280;28261;53.304;-6.284;2023-04-23T07:18:38;99770.38;;;12.25;85.63
42633;BME280;28261;53.304;-6.284;2023-04-23T07:20:41;99772.19;;;12.44;84.94
42633;BME280;28261;53.304;-6.284;2023-04-23T07:22:45;99771.78;;;12.68;83.62
42633;BME280;28261;53.304;-6.284;2023-04-23T07:24:49;99775.56;;;13.04;83.89
42633;BME280;28261;53.304;-6.284;2023-04-23T07:26:55;99782.94;;;13.30;81.40
42633;BME280;28261;53.304;-6.284;2023-04-23T07:28:58;99775.41;;;12.96;82.68
42633;BME280;28261;53.304;-6.284;2023-04-23T07:31:02;99779.63;;;12.60;83.74
42633;BME280;28261;53.304;-6.284;2023-04-23T07:33:06;99781.41;;;12.30;85.21
42633;BME280;28261;53.304;-6.284;2023-04-23T07:35:10;99783.38;;;12.28;85.17
42633;BME280;28261;53.304;-6.284;2023-04-23T07:37:14;99778.06;;;12.38;83.95
42633;BME280;28261;53.304;-6.284;2023-04-23T07:39:19;99779.75;;;12.39;84.24
42633;BME280;28261;53.304;-6.284;2023-04-23T07:41:23;99782.53;;;12.27;83.76
42633;BME280;28261;53.304;-6.284;2023-04-23T07:43:29;99783.06;;;12.11;83.66
42633;BME280;28261;53.304;-6.284;2023-04-23T07:45:33;99789.28;;;11.91;84.18
42633;BME280;28261;53.304;-6.284;2023-04-23T07:47:37;99784.84;;;11.70;85.40
42633;BME280;28261;53.304;-6.284;2023-04-23T07:49:41;99789.38;;;11.48;86.12
42633;BME280;28261;53.304;-6.284;2023-04-23T07:51:45;99791.84;;;11.19;86.66
42633;BME280;28261;53.304;-6.284;2023-04-23T07:53:48;99791.66;;;10.90;87.70
42633;BME280;28261;53.304;-6.284;2023-04-23T07:55:53;99800.91;;;10.63;88.67
42633;BME280;28261;53.304;-6.284;2023-04-23T07:57:58;99798.44;;;10.39;89.76
42633;BME280;28261;53.304;-6.284;2023-04-23T08:00:04;99794.00;;;10.16;90.71
42633;BME280;28261;53.304;-6.284;2023-04-23T08:02:14;99796.06;;;10.02;91.26
42633;BME280;28261;53.304;-6.284;2023-04-23T08:04:19;99800.31;;;9.81;91.50
42633;BME280;28261;53.304;-6.284;2023-04-23T08:06:25;99798.41;;;9.61;92.06
42633;BME280;28261;53.304;-6.284;2023-04-23T08:08:31;99803.06;;;9.46;92.92
42633;BME280;28261;53.304;-6.284;2023-04-23T08:10:35;99802.44;;;9.31;93.17
42633;BME280;28261;53.304;-6.284;2023-04-23T08:12:40;99800.00;;;9.17;94.11
42633;BME280;28261;53.304;-6.284;2023-04-23T08:14:44;99809.81;;;9.03;94.13
42633;BME280;28261;53.304;-6.284;2023-04-23T08:16:54;99807.97;;;8.92;95.51
42633;BME280;28261;53.304;-6.284;2023-04-23T08:18:58;99808.56;;;8.85;95.36
42633;BME280;28261;53.304;-6.284;2023-04-23T08:21:07;99808.78;;;8.81;96.58
42633;BME280;28261;53.304;-6.284;2023-04-23T08:23:11;99809.63;;;8.82;96.43
42633;BME280;28261;53.304;-6.284;2023-04-23T08:25:14;99817.56;;;8.82;96.64
42633;BME280;28261;53.304;-6.284;2023-04-23T08:27:18;99813.13;;;8.83;96.48
42633;BME280;28261;53.304;-6.284;2023-04-23T08:29:22;99817.44;;;8.84;96.18
42633;BME280;28261;53.304;-6.284;2023-04-23T08:31:26;99818.16;;;8.86;96.78
42633;BME280;28261;53.304;-6.284;2023-04-23T08:33:31;99817.47;;;8.95;96.61
42633;BME280;28261;53.304;-6.284;2023-04-23T08:35:35;99816.34;;;9.10;96.62
42633;BME280;28261;53.304;-6.284;2023-04-23T08:37:39;99817.09;;;9.24;96.26
42633;BME280;28261;53.304;-6.284;2023-04-23T08:39:42;99810.75;;;9.38;95.53
42633;BME280;28261;53.304;-6.284;2023-04-23T08:41:51;99809.81;;;9.50;94.60
42633;BME280;28261;53.304;-6.284;2023-04-23T08:44:02;99819.19;;;9.65;94.02
42633;BME280;28261;53.304;-6.284;2023-04-23T08:46:11;99811.00;;;9.80;93.83
42633;BME280;28261;53.304;-6.284;2023-04-23T08:48:17;99813.91;;;9.99;92.37
42633;BME280;28261;53.304;-6.284;2023-04-23T08:50:25;99812.69;;;10.15;91.45
42633;BME280;28261;53.304;-6.284;2023-04-23T08:52:32;99811.69;;;10.27;90.18
42633;BME280;28261;53.304;-6.284;2023-04-23T08:54:36;99815.47;;;10.36;88.82
42633;BME280;28261;53.304;-6.284;2023-04-23T08:56:45;99813.75;;;10.35;88.31
42633;BME280;28261;53.304;-6.284;2023-04-23T08:58:49;99812.03;;;10.45;88.91
42633;BME280;28261;53.304;-6.284;2023-04-23T09:00:57;99811.75;;;10.60;87.51
42633;BME280;28261;53.304;-6.284;2023-04-23T09:03:01;99813.88;;;10.77;87.00
42633;BME280;28261;53.304;-6.284;2023-04-23T09:05:06;99814.28;;;10.94;85.67
42633;BME280;28261;53.304;-6.284;2023-04-23T09:07:12;99817.13;;;11.02;83.96
42633;BME280;28261;53.304;-6.284;2023-04-23T09:09:16;99818.22;;;10.99;83.29
42633;BME280;28261;53.304;-6.284;2023-04-23T09:11:23;99819.31;;;10.97;83.46
42633;BME280;28261;53.304;-6.284;2023-04-23T09:13:30;99827.69;;;10.81;84.60
42633;BME280;28261;53.304;-6.284;2023-04-23T09:15:35;99827.94;;;10.57;84.00
42633;BME280;28261;53.304;-6.284;2023-04-23T09:17:45;99828.56;;;10.38;85.35
42633;BME280;28261;53.304;-6.284;2023-04-23T09:19:52;99828.19;;;10.31;85.77
42633;BME280;28261;53.304;-6.284;2023-04-23T09:21:57;99829.53;;;10.25;86.30
42633;BME280;28261;53.304;-6.284;2023-04-23T09:24:07;99835.19;;;10.09;86.27
42633;BME280;28261;53.304;-6.284;2023-04-23T09:26:18;99832.22;;;9.91;86.63
42633;BME280;28261;53.304;-6.284;2023-04-23T09:28:33;99836.78;;;9.78;86.97
42633;BME280;28261;53.304;-6.284;2023-04-23T09:30:42;99836.28;;;9.61;86.45
42633;BME280;28261;53.304;-6.284;2023-04-23T09:32:47;99846.25;;;9.58;87.50
42633;BME280;28261;53.304;-6.284;2023-04-23T09:34:55;99841.19;;;9.55;87.27
42633;BME280;28261;53.304;-6.284;2023-04-23T09:36:59;99842.28;;;9.52;87.82
42633;BME280;28261;53.304;-6.284;2023-04-23T09:39:12;99842.91;;;9.56;86.99
42633;BME280;28261;53.304;-6.284;2023-04-23T09:41:20;99851.66;;;9.45;86.65
42633;BME280;28261;53.304;-6.284;2023-04-23T09:43:29;99845.63;;;9.43;86.41
42633;BME280;28261;53.304;-6.284;2023-04-23T09:45:32;99846.44;;;9.32;85.21
42633;BME280;28261;53.304;-6.284;2023-04-23T09:47:38;99848.81;;;9.24;85.23
42633;BME280;28261;53.304;-6.284;2023-04-23T09:49:45;99852.66;;;9.20;86.22
42633;BME280;28261;53.304;-6.284;2023-04-23T09:51:49;99856.56;;;9.38;86.45
42633;BME280;28261;53.304;-6.284;2023-04-23T09:53:53;99854.44;;;9.55;85.26
42633;BME280;28261;53.304;-6.284;2023-04-23T09:55:58;99861.41;;;9.67;84.48
42633;BME280;28261;53.304;-6.284;2023-04-23T09:58:02;99857.34;;;9.74;83.75
42633;BME280;28261;53.304;-6.284;2023-04-23T10:00:15;99860.47;;;9.79;84.13
42633;BME280;28261;53.304;-6.284;2023-04-23T10:02:26;99856.00;;;9.80;83.90
42633;BME280;28261;53.304;-6.284;2023-04-23T10:04:32;99856.88;;;9.80;83.81
42633;BME280;28261;53.304;-6.284;2023-04-23T10:06:36;99866.25;;;9.85;83.82
42633;BME280;28261;53.304;-6.284;2023-04-23T10:08:58;99861.91;;;9.83;83.02
42633;BME280;28261;53.304;-6.284;2023-04-23T10:11:03;99865.88;;;9.78;83.11
42633;BME280;28261;53.304;-6.284;2023-04-23T10:13:21;99870.69;;;9.73;83.08
42633;BME280;28261;53.304;-6.284;2023-04-23T10:15:27;99869.97;;;9.71;83.87
42633;BME280;28261;53.304;-6.284;2023-04-23T10:17:34;99871.44;;;9.75;83.42
42633;BME280;28261;53.304;-6.284;2023-04-23T10:19:37;99872.00;;;9.78;83.50
42633;BME280;28261;53.304;-6.284;2023-04-23T10:21:45;99878.41;;;9.87;83.64
42633;BME280;28261;53.304;-6.284;2023-04-23T10:24:01;99875.63;;;10.11;83.14
42633;BME280;28261;53.304;-6.284;2023-04-23T10:26:07;99877.44;;;10.33;82.38
42633;BME280;28261;53.304;-6.284;2023-04-23T10:28:13;99879.38;;;10.54;81.38
42633;BME280;28261;53.304;-6.284;2023-04-23T10:30:19;99878.00;;;10.71;78.81
42633;BME280;28261;53.304;-6.284;2023-04-23T10:32:24;99884.59;;;10.77;78.43
42633;BME280;28261;53.304;-6.284;2023-04-23T10:34:29;99889.81;;;10.67;78.27
42633;BME280;28261;53.304;-6.284;2023-04-23T10:36:33;99891.75;;;10.54;78.46
42633;BME280;28261;53.304;-6.284;2023-04-23T10:38:37;99898.16;;;10.40;78.28
42633;BME280;28261;53.304;-6.284;2023-04-23T10:41:00;99894.53;;;10.29;78.50
42633;BME280;28261;53.304;-6.284;2023-04-23T10:43:07;99898.75;;;10.21;78.37
42633;BME280;28261;53.304;-6.284;2023-04-23T10:45:14;99899.38;;;10.13;78.20
42633;BME280;28261;53.304;-6.284;2023-04-23T10:47:26;99897.69;;;10.12;78.71
42633;BME280;28261;53.304;-6.284;2023-04-23T10:49:30;99899.47;;;10.11;78.84
42633;BME280;28261;53.304;-6.284;2023-04-23T10:51:35;99904.66;;;10.13;78.23
42633;BME280;28261;53.304;-6.284;2023-04-23T10:53:41;99905.25;;;10.16;78.61
42633;BME280;28261;53.304;-6.284;2023-04-23T10:55:46;99902.25;;;10.21;77.87